Time;durP1;ratioP1;P1;durP2;ratioP2;P2;SDS_P1;SDS_P2;PMS_P1;PMS_P2;Temp;Humidity;BMP_temperature;BMP_pressure;BME280_temperature;BME280_humidity;BME280_pressure;Samples;Min_cycle;Max_cycle;Signal;HPM_P1;HPM_P2
2023/01/22 00:02:05;;;;;;;21.25;13.90;;;0.10;99.90;;;;;;4927265;29;20048;-83
2023/01/22 00:04:32;;;;;;;18.45;10.43;;;0.20;99.90;;;;;;4906387;29;20054;-83
2023/01/22 00:06:58;;;;;;;18.13;12.52;;;0.10;99.90;;;;;;4927335;29;20084;-82
2023/01/22 00:09:25;;;;;;;21.92;13.07;;;0.10;99.90;;;;;;4929048;29;20566;-83
2023/01/22 00:11:52;;;;;;;20.15;12.30;;;0.10;99.90;;;;;;4929292;29;20065;-83
2023/01/22 00:14:18;;;;;;;21.50;12.05;;;0.10;99.90;;;;;;4917838;29;20048;-82
2023/01/22 00:16:45;;;;;;;22.63;13.05;;;0.00;99.90;;;;;;4915535;29;20048;-83
2023/01/22 00:19:12;;;;;;;19.02;12.38;;;0.00;99.90;;;;;;4906367;29;20135;-82
2023/01/22 00:21:38;;;;;;;20.75;13.45;;;0.00;99.90;;;;;;4928042;29;20135;-83
2023/01/22 00:24:05;;;;;;;19.50;12.07;;;0.00;99.90;;;;;;4930517;29;20442;-82
2023/01/22 00:26:33;;;;;;;20.65;12.13;;;0.00;99.90;;;;;;4918114;29;20044;-83
2023/01/22 00:29:00;;;;;;;25.20;13.32;;;0.00;99.90;;;;;;4931850;29;20040;-83
2023/01/22 00:31:26;;;;;;;22.08;12.45;;;0.00;99.90;;;;;;4926370;29;20062;-82
2023/01/22 00:33:53;;;;;;;20.88;13.13;;;-0.10;99.90;;;;;;4924895;29;20510;-82
2023/01/22 00:36:21;;;;;;;20.15;12.52;;;0.00;99.90;;;;;;4927188;29;20050;-82
2023/01/22 00:38:49;;;;;;;21.75;13.05;;;0.00;99.90;;;;;;4907224;29;20055;-83
2023/01/22 00:41:17;;;;;;;16.88;10.90;;;-0.10;99.90;;;;;;4931960;29;20111;-83
2023/01/22 00:43:44;;;;;;;21.08;13.80;;;-0.10;99.90;;;;;;4931480;29;20098;-82
2023/01/22 00:46:13;;;;;;;22.13;12.73;;;-0.10;99.90;;;;;;4906738;29;20048;-83
2023/01/22 00:48:40;;;;;;;21.75;12.88;;;-0.20;99.90;;;;;;4933057;29;20048;-82
2023/01/22 00:51:07;;;;;;;23.90;14.07;;;-0.10;99.90;;;;;;4912780;29;20048;-83
2023/01/22 00:53:35;;;;;;;22.77;13.13;;;-0.10;99.90;;;;;;4908270;29;20052;-82
2023/01/22 00:56:04;;;;;;;18.33;11.45;;;-0.10;99.90;;;;;;4928339;29;20506;-83
2023/01/22 00:58:30;;;;;;;19.52;11.90;;;-0.10;99.90;;;;;;4931785;29;20398;-83
2023/01/22 01:00:57;;;;;;;17.77;12.25;;;-0.10;99.90;;;;;;4905977;29;20091;-83
2023/01/22 01:03:27;;;;;;;17.83;10.60;;;-0.10;99.90;;;;;;4908329;29;20128;-83
2023/01/22 01:06:02;;;;;;;19.08;12.13;;;0.00;99.90;;;;;;4929517;29;20052;-83
2023/01/22 01:08:32;;;;;;;21.63;12.45;;;-0.10;99.90;;;;;;4931064;29;20055;-82
2023/01/22 01:11:01;;;;;;;20.67;12.65;;;-0.10;99.90;;;;;;4921896;29;20056;-83
2023/01/22 01:13:31;;;;;;;22.17;12.27;;;0.00;99.90;;;;;;4908737;29;20060;-83
2023/01/22 01:16:00;;;;;;;22.80;12.70;;;-0.10;99.90;;;;;;4901472;29;20096;-83
2023/01/22 01:18:28;;;;;;;21.50;13.65;;;0.00;99.90;;;;;;4910075;29;20063;-83
2023/01/22 01:20:55;;;;;;;18.08;11.00;;;-0.10;99.90;;;;;;4907116;29;20079;-82
2023/01/22 01:23:27;;;;;;;21.35;12.65;;;-0.10;99.90;;;;;;4912486;29;20063;-83
2023/01/22 01:25:54;;;;;;;19.35;11.50;;;-0.20;99.90;;;;;;4929995;29;20533;-83
2023/01/22 01:28:20;;;;;;;25.80;14.63;;;-0.20;99.90;;;;;;4905952;29;20067;-82
2023/01/22 01:30:47;;;;;;;21.65;13.02;;;-0.20;99.90;;;;;;4921511;29;20619;-82
2023/01/22 01:33:14;;;;;;;21.83;12.90;;;-0.30;99.90;;;;;;4925914;29;20496;-83
2023/01/22 01:35:41;;;;;;;20.85;13.25;;;-0.40;99.90;;;;;;4927383;29;20062;-83
2023/01/22 01:38:07;;;;;;;24.90;15.25;;;-0.40;99.90;;;;;;4910509;29;20054;-83
2023/01/22 01:40:39;;;;;;;20.00;12.55;;;-0.40;99.90;;;;;;4931324;29;20055;-83
2023/01/22 01:43:15;;;;;;;22.17;12.75;;;-0.40;99.90;;;;;;4918599;29;20067;-83
2023/01/22 01:45:42;;;;;;;25.08;16.08;;;-0.40;99.90;;;;;;4923271;29;20055;-82
2023/01/22 01:48:31;;;;;;;24.08;13.80;;;-0.40;99.90;;;;;;4907193;29;20048;-83
2023/01/22 01:51:32;;;;;;;24.45;13.80;;;-0.40;99.90;;;;;;4939335;28;20032;-84
2023/01/22 01:54:01;;;;;;;28.08;15.65;;;-0.50;99.90;;;;;;4951854;28;20042;-84
2023/01/22 01:56:31;;;;;;;24.85;14.20;;;-0.40;99.90;;;;;;4946648;28;20036;-84
2023/01/22 01:59:04;;;;;;;26.42;14.70;;;-0.40;99.90;;;;;;4930698;28;20035;-83
2023/01/22 02:01:32;;;;;;;22.38;14.85;;;-0.40;99.90;;;;;;4946264;28;20056;-81
2023/01/22 02:03:59;;;;;;;20.27;13.45;;;-0.40;99.90;;;;;;4905847;29;20111;-82
2023/01/22 02:06:26;;;;;;;19.90;13.05;;;-0.40;99.90;;;;;;4925042;29;20079;-82
2023/01/22 02:08:54;;;;;;;23.92;14.45;;;-0.50;99.90;;;;;;4927536;29;20664;-80
2023/01/22 02:11:22;;;;;;;26.10;14.35;;;-0.50;99.90;;;;;;4898238;29;20054;-82
2023/01/22 02:14:04;;;;;;;24.58;13.13;;;-0.40;99.90;;;;;;4903730;29;20044;-80
2023/01/22 02:16:31;;;;;;;23.25;13.75;;;-0.40;99.90;;;;;;4925273;29;20048;-82
2023/01/22 02:18:58;;;;;;;21.27;13.25;;;-0.40;99.90;;;;;;4927158;29;20052;-83
2023/01/22 02:21:31;;;;;;;22.08;12.68;;;-0.40;99.90;;;;;;4927622;29;20044;-83
2023/01/22 02:23:58;;;;;;;23.00;14.43;;;-0.40;99.90;;;;;;4906562;29;20049;-82
2023/01/22 02:26:25;;;;;;;20.60;12.18;;;-0.40;99.90;;;;;;4922818;29;20144;-82
2023/01/22 02:28:52;;;;;;;21.17;13.00;;;-0.40;99.90;;;;;;4908707;29;20048;-82
2023/01/22 02:31:18;;;;;;;17.42;11.85;;;-0.40;99.90;;;;;;4925718;29;20135;-83
2023/01/22 02:33:45;;;;;;;21.40;13.43;;;-0.50;99.90;;;;;;4929035;29;20493;-82
2023/01/22 02:36:12;;;;;;;20.50;12.27;;;-0.40;99.90;;;;;;4934936;29;20138;-81
2023/01/22 02:38:39;;;;;;;21.58;12.80;;;-0.40;99.90;;;;;;4910782;29;20421;-84
2023/01/22 02:41:06;;;;;;;18.77;11.68;;;-0.40;99.90;;;;;;4906835;29;20413;-81
2023/01/22 02:43:32;;;;;;;19.73;11.43;;;-0.50;99.90;;;;;;4926197;29;20054;-81
2023/01/22 02:45:59;;;;;;;21.38;12.43;;;-0.50;99.90;;;;;;4925543;29;20052;-83
2023/01/22 02:48:26;;;;;;;18.60;11.75;;;-0.50;99.90;;;;;;4909834;29;20056;-82
2023/01/22 02:50:52;;;;;;;17.58;11.57;;;-0.40;99.90;;;;;;4909934;29;20056;-82
2023/01/22 02:53:19;;;;;;;20.52;12.48;;;-0.40;99.90;;;;;;4922328;29;20419;-83
2023/01/22 02:55:47;;;;;;;22.98;11.93;;;-0.40;99.90;;;;;;4921096;29;20151;-82
2023/01/22 02:58:16;;;;;;;19.77;12.13;;;-0.40;99.90;;;;;;4926102;29;20466;-82
2023/01/22 03:00:42;;;;;;;17.75;10.10;;;-0.50;99.90;;;;;;4909812;29;20051;-82
2023/01/22 03:03:14;;;;;;;16.60;9.88;;;-0.50;99.90;;;;;;4919892;29;20048;-82
2023/01/22 03:05:51;;;;;;;18.17;10.23;;;-0.50;99.90;;;;;;4909204;29;20087;-82
2023/01/22 03:08:18;;;;;;;18.63;11.00;;;-0.50;99.90;;;;;;4923760;29;20051;-82
2023/01/22 03:10:45;;;;;;;17.83;11.02;;;-0.50;99.90;;;;;;4926533;29;20052;-83
2023/01/22 03:21:28;;;;;;;17.38;10.18;;;-0.40;99.90;;;;;;4921174;29;20058;-80
2023/01/22 03:23:55;;;;;;;17.45;9.90;;;-0.50;99.90;;;;;;4924256;29;20051;-82
2023/01/22 03:26:23;;;;;;;13.98;9.15;;;-0.40;99.90;;;;;;4917822;29;20409;-80
2023/01/22 03:28:50;;;;;;;18.92;11.65;;;-0.50;99.90;;;;;;4916037;29;20083;-83
2023/01/22 03:31:17;;;;;;;18.08;10.85;;;-0.50;99.90;;;;;;4931294;29;20048;-83
2023/01/22 03:33:44;;;;;;;20.85;10.65;;;-0.50;99.90;;;;;;4911077;29;20556;-83
2023/01/22 03:36:13;;;;;;;15.30;9.18;;;-0.50;99.90;;;;;;4905754;29;20074;-83
2023/01/22 03:38:40;;;;;;;15.70;10.48;;;-0.50;99.90;;;;;;4927755;29;20107;-82
2023/01/22 03:41:10;;;;;;;15.90;10.15;;;-0.60;99.90;;;;;;4926155;29;20072;-81
2023/01/22 03:43:37;;;;;;;22.35;13.23;;;-0.60;99.90;;;;;;4928955;29;20055;-82
2023/01/22 03:46:16;;;;;;;17.30;10.00;;;-0.50;99.90;;;;;;4934563;29;20063;-82
2023/01/22 03:48:43;;;;;;;19.33;12.20;;;-0.50;99.90;;;;;;4931641;29;20055;-82
2023/01/22 03:51:12;;;;;;;19.55;11.35;;;-0.50;99.90;;;;;;4923448;29;20490;-81
2023/01/22 03:53:40;;;;;;;19.00;11.95;;;-0.40;99.90;;;;;;4929557;29;20052;-83
2023/01/22 03:56:10;;;;;;;22.27;12.80;;;-0.40;99.90;;;;;;4931784;29;20087;-81
2023/01/22 03:58:37;;;;;;;23.50;13.90;;;-0.50;99.90;;;;;;4926707;29;20087;-83
2023/01/22 04:01:07;;;;;;;24.65;15.10;;;-0.50;99.90;;;;;;4929601;29;20048;-81
2023/01/22 04:03:34;;;;;;;27.63;14.70;;;-0.50;99.90;;;;;;4906966;29;20049;-79
2023/01/22 04:06:02;;;;;;;27.17;15.07;;;-0.50;99.90;;;;;;4906532;29;20123;-82
2023/01/22 04:08:30;;;;;;;28.42;15.38;;;-0.50;99.90;;;;;;4925962;29;20095;-82
2023/01/22 04:10:59;;;;;;;27.88;15.35;;;-0.50;99.90;;;;;;4929952;29;20138;-82
2023/01/22 04:13:27;;;;;;;32.33;16.48;;;-0.50;99.90;;;;;;4940543;29;20139;-82
2023/01/22 04:15:54;;;;;;;23.77;14.65;;;-0.50;99.90;;;;;;4932866;29;20074;-82
2023/01/22 04:18:20;;;;;;;31.50;16.70;;;-0.50;99.90;;;;;;4933339;29;20367;-82
2023/01/22 04:20:49;;;;;;;28.58;16.80;;;-0.50;99.90;;;;;;4933656;29;20131;-80
2023/01/22 04:23:16;;;;;;;28.67;16.77;;;-0.60;99.90;;;;;;4933910;29;20055;-82
2023/01/22 04:25:43;;;;;;;28.33;15.48;;;-0.60;99.90;;;;;;4938910;29;20056;-82
2023/01/22 04:28:10;;;;;;;28.45;15.65;;;-0.60;99.90;;;;;;4942660;29;20044;-81
2023/01/22 04:30:37;;;;;;;30.05;16.13;;;-0.60;99.90;;;;;;4920801;29;20433;-81
2023/01/22 04:33:04;;;;;;;31.40;16.08;;;-0.60;99.90;;;;;;4925996;29;20434;-82
2023/01/22 04:35:32;;;;;;;28.67;15.00;;;-0.50;99.90;;;;;;4910082;29;20067;-82
2023/01/22 04:37:58;;;;;;;31.88;17.83;;;-0.50;99.90;;;;;;4911894;29;20056;-82
2023/01/22 04:40:25;;;;;;;28.63;15.77;;;-0.50;99.90;;;;;;4915049;29;20060;-82
2023/01/22 04:42:55;;;;;;;30.63;15.32;;;-0.40;99.90;;;;;;4928539;29;20139;-82
2023/01/22 04:45:21;;;;;;;30.97;16.90;;;-0.40;99.90;;;;;;4925604;29;20422;-82
2023/01/22 04:47:48;;;;;;;29.95;15.98;;;-0.40;99.90;;;;;;4904256;29;20659;-81
2023/01/22 04:50:20;;;;;;;32.38;17.40;;;-0.40;99.90;;;;;;4926756;29;20071;-80
2023/01/22 04:52:49;;;;;;;32.78;17.73;;;-0.40;99.90;;;;;;4910517;29;20043;-81
2023/01/22 04:55:16;;;;;;;28.30;15.10;;;-0.30;99.90;;;;;;4931982;29;20047;-82
2023/01/22 04:57:43;;;;;;;30.40;16.55;;;-0.40;99.90;;;;;;4919346;29;20295;-80
2023/01/22 05:00:11;;;;;;;33.65;17.17;;;-0.40;99.90;;;;;;4919910;29;20076;-80
2023/01/22 05:02:37;;;;;;;30.00;16.13;;;-0.40;99.90;;;;;;4922855;29;20044;-81
2023/01/22 05:05:05;;;;;;;29.85;16.75;;;-0.40;99.90;;;;;;4908826;29;20059;-81
2023/01/22 05:07:32;;;;;;;30.85;16.65;;;-0.40;99.90;;;;;;4910269;29;20095;-81
2023/01/22 05:09:59;;;;;;;30.77;15.77;;;-0.40;99.90;;;;;;4926318;29;20047;-81
2023/01/22 05:12:26;;;;;;;32.60;16.63;;;-0.40;99.90;;;;;;4931503;29;20462;-81
2023/01/22 05:14:52;;;;;;;34.42;16.85;;;-0.40;99.90;;;;;;4919561;29;20453;-82
2023/01/22 05:17:20;;;;;;;33.17;17.70;;;-0.40;99.90;;;;;;4924968;29;20114;-82
2023/01/22 05:19:46;;;;;;;32.95;16.83;;;-0.40;99.90;;;;;;4910846;29;20142;-82
2023/01/22 05:22:13;;;;;;;31.58;17.13;;;-0.40;99.90;;;;;;4931366;29;20087;-82
2023/01/22 05:24:40;;;;;;;32.58;17.80;;;-0.40;99.90;;;;;;4925789;29;20094;-81
2023/01/22 05:27:06;;;;;;;34.38;16.92;;;-0.40;99.90;;;;;;4924935;29;20135;-81
2023/01/22 05:29:33;;;;;;;37.63;18.08;;;-0.40;99.90;;;;;;4907086;29;20425;-82
2023/01/22 05:32:00;;;;;;;35.28;19.38;;;-0.40;99.90;;;;;;4909198;29;20079;-82
2023/01/22 05:34:27;;;;;;;32.28;15.77;;;-0.40;99.90;;;;;;4926739;29;20114;-81
2023/01/22 05:36:53;;;;;;;33.08;17.33;;;-0.40;99.90;;;;;;4928326;29;20052;-80
2023/01/22 05:39:20;;;;;;;37.47;16.90;;;-0.40;99.90;;;;;;4926262;29;20111;-81
2023/01/22 05:41:49;;;;;;;38.73;19.03;;;-0.40;99.90;;;;;;4928117;29;20091;-81
2023/01/22 05:44:16;;;;;;;36.30;17.83;;;-0.40;99.90;;;;;;4934673;29;20063;-82
2023/01/22 05:46:43;;;;;;;36.25;17.45;;;-0.40;99.90;;;;;;4936787;29;20058;-81
2023/01/22 05:49:09;;;;;;;39.17;20.10;;;-0.40;99.90;;;;;;4923390;29;20044;-82
2023/01/22 05:51:36;;;;;;;39.03;19.40;;;-0.30;99.90;;;;;;4921154;29;20389;-81
2023/01/22 05:54:03;;;;;;;37.35;18.85;;;-0.30;99.90;;;;;;4920320;29;20086;-80
2023/01/22 05:56:30;;;;;;;42.25;19.25;;;-0.30;99.90;;;;;;4930319;29;20137;-81
2023/01/22 05:58:57;;;;;;;34.67;17.73;;;-0.30;99.90;;;;;;4912139;29;20282;-83
2023/01/22 06:01:24;;;;;;;39.78;19.27;;;-0.30;99.90;;;;;;4925567;29;20509;-81
2023/01/22 06:03:51;;;;;;;36.67;19.25;;;-0.30;99.90;;;;;;4921303;29;20457;-83
2023/01/22 06:06:18;;;;;;;35.42;18.13;;;-0.20;99.90;;;;;;4913095;29;20047;-82
2023/01/22 06:08:46;;;;;;;37.55;17.67;;;-0.20;99.90;;;;;;4913495;29;20099;-81
2023/01/22 06:11:15;;;;;;;35.08;18.63;;;-0.20;99.90;;;;;;4921764;29;20056;-80
2023/01/22 06:13:42;;;;;;;42.67;20.55;;;-0.20;99.90;;;;;;4904929;29;20350;-82
2023/01/22 06:16:09;;;;;;;41.38;19.20;;;-0.20;99.90;;;;;;4928287;29;20536;-82
2023/01/22 06:18:36;;;;;;;40.13;20.73;;;-0.10;99.90;;;;;;4929392;29;20075;-83
2023/01/22 06:21:05;;;;;;;41.05;19.88;;;-0.10;99.90;;;;;;4929069;29;20070;-82
2023/01/22 06:23:32;;;;;;;36.85;18.98;;;-0.10;99.90;;;;;;4909461;29;20056;-81
2023/01/22 06:26:00;;;;;;;39.60;21.02;;;-0.10;99.90;;;;;;4901745;29;20492;-81
2023/01/22 06:28:27;;;;;;;34.60;18.60;;;0.00;99.90;;;;;;4908122;29;20139;-81
2023/01/22 06:30:56;;;;;;;38.22;20.85;;;-0.10;99.90;;;;;;4910878;29;20059;-81
2023/01/22 06:33:24;;;;;;;39.03;19.73;;;0.00;99.90;;;;;;4930206;29;20051;-80
2023/01/22 06:35:55;;;;;;;36.28;20.48;;;0.00;99.90;;;;;;4928472;29;20048;-80
2023/01/22 06:38:22;;;;;;;34.08;18.40;;;0.00;99.90;;;;;;4903279;29;20139;-81
2023/01/22 06:40:57;;;;;;;35.10;19.10;;;0.00;99.90;;;;;;4919077;29;20059;-81
2023/01/22 06:43:25;;;;;;;35.58;17.85;;;0.10;99.90;;;;;;4923218;29;20509;-81
2023/01/22 06:45:52;;;;;;;33.38;18.70;;;0.20;99.90;;;;;;4924675;29;20075;-79
2023/01/22 06:48:19;;;;;;;32.70;19.27;;;0.20;99.90;;;;;;4913619;29;20159;-82
2023/01/22 06:50:46;;;;;;;33.55;17.77;;;0.20;99.90;;;;;;4931821;29;20087;-81
2023/01/22 06:53:13;;;;;;;35.92;19.23;;;0.20;99.90;;;;;;4901823;29;20047;-80
2023/01/22 06:55:39;;;;;;;30.30;17.98;;;0.20;99.90;;;;;;4905825;29;20556;-81
2023/01/22 06:58:06;;;;;;;33.30;19.90;;;0.20;99.90;;;;;;4930986;29;20044;-81
2023/01/22 07:00:33;;;;;;;33.28;18.50;;;0.30;99.90;;;;;;4939136;29;20071;-80
2023/01/22 07:03:03;;;;;;;38.08;20.15;;;0.30;99.90;;;;;;4934659;29;20048;-80
2023/01/22 07:05:30;;;;;;;34.42;19.95;;;0.40;99.90;;;;;;4932610;29;20131;-81
2023/01/22 07:07:56;;;;;;;37.45;19.15;;;0.40;99.90;;;;;;4929640;29;20052;-82
2023/01/22 07:10:23;;;;;;;35.53;18.90;;;0.40;99.90;;;;;;4927551;29;20072;-81
2023/01/22 07:12:54;;;;;;;34.67;19.58;;;0.40;99.90;;;;;;4934657;29;20450;-81
2023/01/22 07:15:21;;;;;;;35.92;19.67;;;0.40;99.90;;;;;;4918438;29;20058;-82
2023/01/22 07:17:52;;;;;;;32.30;18.23;;;0.40;99.90;;;;;;4921731;29;20062;-82
2023/01/22 07:20:21;;;;;;;32.50;18.08;;;0.40;99.90;;;;;;4926138;29;20124;-80
2023/01/22 07:22:47;;;;;;;32.30;19.20;;;0.40;99.90;;;;;;4900686;29;20052;-82
2023/01/22 07:25:14;;;;;;;33.45;18.63;;;0.40;99.90;;;;;;4909883;29;20048;-82
2023/01/22 07:27:41;;;;;;;33.45;17.67;;;0.50;99.90;;;;;;4910977;29;20070;-82
2023/01/22 07:30:09;;;;;;;33.67;19.77;;;0.50;99.90;;;;;;4910276;29;20043;-82
2023/01/22 07:32:35;;;;;;;31.60;18.77;;;0.50;99.90;;;;;;4916283;29;20521;-80
2023/01/22 07:35:02;;;;;;;36.28;19.33;;;0.40;99.90;;;;;;4922228;29;20048;-81
2023/01/22 07:37:29;;;;;;;37.22;20.80;;;0.40;99.90;;;;;;4915054;29;20075;-79
2023/01/22 07:39:55;;;;;;;32.60;19.42;;;0.50;99.90;;;;;;4931366;29;20051;-82
2023/01/22 07:42:22;;;;;;;34.45;19.83;;;0.50;99.90;;;;;;4938401;29;20075;-82
2023/01/22 07:44:49;;;;;;;38.53;20.70;;;0.50;99.90;;;;;;4940031;29;20111;-82
2023/01/22 07:47:16;;;;;;;34.30;19.10;;;0.60;99.90;;;;;;4938895;29;20107;-81
2023/01/22 07:49:42;;;;;;;40.42;22.45;;;0.60;99.90;;;;;;4933653;29;20058;-82
2023/01/22 07:52:09;;;;;;;38.33;19.73;;;0.60;99.90;;;;;;4918296;29;20130;-80
2023/01/22 07:54:36;;;;;;;35.45;18.52;;;0.60;99.90;;;;;;4913956;29;20097;-80
2023/01/22 07:57:03;;;;;;;36.45;19.38;;;0.60;99.90;;;;;;4917865;29;20392;-82
2023/01/22 07:59:30;;;;;;;31.67;18.35;;;0.70;99.90;;;;;;4936520;29;20076;-82
2023/01/22 08:01:56;;;;;;;31.77;18.40;;;0.80;99.90;;;;;;4930458;29;20056;-82
2023/01/22 08:04:24;;;;;;;33.40;18.95;;;0.80;99.90;;;;;;4909196;29;20057;-81
2023/01/22 08:06:51;;;;;;;31.83;18.67;;;0.80;99.90;;;;;;4911839;29;20072;-81
2023/01/22 08:09:23;;;;;;;32.08;18.50;;;0.80;99.90;;;;;;4928107;29;20339;-81
2023/01/22 08:11:51;;;;;;;32.97;19.27;;;0.80;99.90;;;;;;4942598;29;20062;-81
2023/01/22 08:14:18;;;;;;;28.27;16.73;;;0.80;99.90;;;;;;4924084;29;20047;-82
2023/01/22 08:16:45;;;;;;;31.55;17.88;;;0.80;99.90;;;;;;4936293;29;20079;-80
2023/01/22 08:19:14;;;;;;;30.50;17.77;;;0.80;99.90;;;;;;4929812;29;20075;-82
2023/01/22 08:21:40;;;;;;;33.92;18.50;;;0.80;99.90;;;;;;4940779;29;20154;-79
2023/01/22 08:24:09;;;;;;;30.70;18.20;;;0.70;99.90;;;;;;4932189;29;20080;-81
2023/01/22 08:26:36;;;;;;;31.00;18.00;;;0.70;99.90;;;;;;4925917;29;20058;-81
2023/01/22 08:29:03;;;;;;;32.15;18.60;;;0.70;99.90;;;;;;4912138;29;20091;-82
2023/01/22 08:31:33;;;;;;;28.27;17.02;;;0.70;99.90;;;;;;4916832;29;20048;-81
2023/01/22 08:34:00;;;;;;;33.90;18.95;;;0.70;99.90;;;;;;4897864;29;20136;-81
2023/01/22 08:36:27;;;;;;;29.80;17.95;;;0.80;99.90;;;;;;4926994;29;20060;-82
2023/01/22 08:38:54;;;;;;;32.20;18.98;;;0.70;99.90;;;;;;4908815;29;20080;-81
2023/01/22 08:41:21;;;;;;;35.83;19.85;;;0.80;99.90;;;;;;4930840;29;20050;-81
2023/01/22 08:43:49;;;;;;;31.83;17.63;;;0.80;99.90;;;;;;4915861;29;20055;-82
2023/01/22 08:46:16;;;;;;;31.23;17.85;;;0.80;99.90;;;;;;4922999;29;20044;-80
2023/01/22 08:48:43;;;;;;;28.08;16.48;;;0.80;99.90;;;;;;4926621;29;20477;-82
2023/01/22 08:51:10;;;;;;;26.33;16.50;;;0.90;99.90;;;;;;4912638;29;20413;-81
2023/01/22 08:53:38;;;;;;;29.67;16.05;;;0.70;99.90;;;;;;4914655;29;20087;-82
2023/01/22 08:56:05;;;;;;;30.77;16.88;;;0.70;99.90;;;;;;4912037;29;20458;-81
2023/01/22 08:58:32;;;;;;;31.40;18.50;;;0.70;99.90;;;;;;4910249;29;20098;-82
2023/01/22 09:00:59;;;;;;;29.38;17.52;;;0.70;99.90;;;;;;4923191;29;20056;-82
2023/01/22 09:03:25;;;;;;;29.30;16.88;;;0.80;99.90;;;;;;4926111;29;20052;-82
2023/01/22 09:05:52;;;;;;;27.88;17.55;;;0.70;99.90;;;;;;4926590;29;20055;-82
2023/01/22 09:08:20;;;;;;;30.73;17.60;;;0.70;99.90;;;;;;4931862;29;20043;-80
2023/01/22 09:10:47;;;;;;;30.15;17.40;;;0.70;99.90;;;;;;4929787;29;20051;-82
2023/01/22 09:13:14;;;;;;;29.63;17.30;;;0.70;99.90;;;;;;4931578;29;20051;-81
2023/01/22 09:15:40;;;;;;;31.95;18.63;;;0.70;99.90;;;;;;4932968;29;20139;-82
2023/01/22 09:18:07;;;;;;;28.67;17.27;;;0.70;99.90;;;;;;4935988;29;20051;-82
2023/01/22 09:20:34;;;;;;;27.63;17.17;;;0.70;99.90;;;;;;4920432;29;20052;-82
2023/01/22 09:23:00;;;;;;;29.92;17.90;;;0.70;99.90;;;;;;4937680;29;20052;-81
2023/01/22 09:25:28;;;;;;;27.73;17.15;;;0.70;99.90;;;;;;4941252;29;20055;-79
2023/01/22 09:27:59;;;;;;;26.73;17.15;;;0.70;99.90;;;;;;4933078;29;20126;-81
2023/01/22 09:30:28;;;;;;;27.25;16.85;;;0.70;99.90;;;;;;4930110;29;20055;-82
2023/01/22 09:32:56;;;;;;;;;;;0.70;99.90;;;;;;4928856;29;20065;-82
2023/01/22 09:35:22;;;;;;;26.65;14.88;;;0.70;99.90;;;;;;4913752;29;19923;-81
2023/01/22 09:37:49;;;;;;;29.67;17.35;;;0.70;99.90;;;;;;4933177;29;20055;-81
2023/01/22 09:40:29;;;;;;;25.65;17.30;;;0.70;99.90;;;;;;4930575;29;20072;-81
2023/01/22 09:43:03;;;;;;;;;;;0.80;99.90;;;;;;4921536;29;20066;-82
2023/01/22 09:45:33;;;;;;;27.42;16.58;;;0.80;99.90;;;;;;4923414;29;19922;-80
2023/01/22 09:48:03;;;;;;;31.85;17.48;;;0.80;99.90;;;;;;4924889;29;20051;-82
2023/01/22 09:50:33;;;;;;;25.92;16.30;;;0.80;99.90;;;;;;4925477;29;20058;-81
2023/01/22 09:53:06;;;;;;;24.40;16.40;;;0.80;99.90;;;;;;4915673;29;20183;-81
2023/01/22 09:55:41;;;;;;;25.55;15.98;;;0.80;99.90;;;;;;4910581;29;20095;-81
2023/01/22 09:58:14;;;;;;;28.92;16.80;;;0.90;99.90;;;;;;4920430;29;20044;-82
2023/01/22 10:00:46;;;;;;;29.55;16.98;;;0.90;99.90;;;;;;4925992;29;20088;-80
2023/01/22 10:03:31;;;;;;;27.60;16.65;;;0.90;99.90;;;;;;4930282;29;20409;-82
2023/01/22 10:06:12;;;;;;;29.00;15.80;;;0.90;99.90;;;;;;4924725;29;20052;-80
2023/01/22 10:09:00;;;;;;;26.33;16.17;;;0.90;99.90;;;;;;4920921;29;20127;-82
2023/01/22 10:11:27;;;;;;;25.02;15.25;;;0.90;99.90;;;;;;4894527;29;20090;-82
2023/01/22 10:13:57;;;;;;;26.52;16.17;;;0.90;99.90;;;;;;4905017;29;20068;-82
2023/01/22 10:16:24;;;;;;;26.55;16.10;;;0.90;99.90;;;;;;4926403;29;20087;-82
2023/01/22 10:19:22;;;;;;;25.83;16.73;;;1.00;99.90;;;;;;4929340;29;20092;-81
2023/01/22 10:21:58;;;;;;;26.80;16.52;;;1.00;99.90;;;;;;4929747;29;20083;-81
2023/01/22 10:24:25;;;;;;;25.63;16.00;;;1.00;99.90;;;;;;4902078;29;20146;-82
2023/01/22 10:26:54;;;;;;;31.70;19.35;;;1.00;99.90;;;;;;4901586;29;20135;-79
2023/01/22 10:29:23;;;;;;;29.45;17.27;;;1.10;99.90;;;;;;4907162;29;20047;-82
2023/01/22 10:31:53;;;;;;;25.73;15.27;;;1.10;99.90;;;;;;4908527;29;20059;-81
2023/01/22 10:34:29;;;;;;;;;;;1.10;99.90;;;;;;4912702;29;20130;-80
2023/01/22 10:37:01;;;;;;;24.60;15.25;;;1.10;99.90;;;;;;4922435;29;20029;-79
2023/01/22 10:39:38;;;;;;;24.67;15.45;;;1.10;99.90;;;;;;4920819;29;20055;-80
2023/01/22 10:42:05;;;;;;;25.27;15.88;;;1.10;99.90;;;;;;4920788;29;20131;-82
2023/01/22 10:44:32;;;;;;;23.63;15.98;;;1.10;99.90;;;;;;4928174;29;20062;-82
2023/01/22 10:47:17;;;;;;;31.42;17.20;;;1.10;99.90;;;;;;4931700;29;20079;-82
2023/01/22 10:49:44;;;;;;;26.48;15.98;;;1.10;99.90;;;;;;4926637;29;20084;-81
2023/01/22 10:52:31;;;;;;;26.02;15.90;;;1.20;99.90;;;;;;4924591;29;20050;-79
2023/01/22 10:54:59;;;;;;;30.13;18.55;;;1.20;99.90;;;;;;4924293;29;20087;-82
2023/01/22 10:57:33;;;;;;;24.40;16.20;;;1.30;99.90;;;;;;4926003;29;20103;-83
2023/01/22 11:00:20;;;;;;;27.77;17.10;;;1.30;99.90;;;;;;4927820;29;20051;-80
2023/01/22 11:02:49;;;;;;;26.83;16.35;;;1.30;99.90;;;;;;4931469;29;20047;-81
2023/01/22 11:05:16;;;;;;;25.23;16.83;;;1.30;99.90;;;;;;4932361;29;20076;-82
2023/01/22 11:07:44;;;;;;;27.30;15.98;;;1.40;99.90;;;;;;4919719;29;20483;-82
2023/01/22 11:10:44;;;;;;;28.00;18.05;;;1.40;99.90;;;;;;4905956;29;20051;-82
2023/01/22 11:13:23;;;;;;;;;;;1.50;99.90;;;;;;4924209;29;20056;-82
2023/01/22 11:16:03;;;;;;;24.48;15.23;;;1.40;99.90;;;;;;4903317;29;19923;-82
2023/01/22 11:18:41;;;;;;;30.38;17.52;;;1.50;99.90;;;;;;4923591;29;20051;-81
2023/01/22 11:21:17;;;;;;;22.60;15.10;;;1.50;99.90;;;;;;4917603;29;20058;-81
2023/01/22 11:23:52;;;;;;;24.15;15.45;;;1.40;99.90;;;;;;4923950;29;20048;-80
2023/01/22 11:26:38;;;;;;;22.08;13.85;;;1.40;99.90;;;;;;4912418;29;20058;-81
2023/01/22 11:29:23;;;;;;;23.77;14.85;;;1.40;99.90;;;;;;4933880;29;20048;-80
2023/01/22 11:31:57;;;;;;;23.38;14.40;;;1.50;99.90;;;;;;4919110;29;20116;-80
2023/01/22 11:35:01;;;;;;;23.10;13.80;;;1.50;99.90;;;;;;4923771;29;20123;-82
2023/01/22 11:38:06;;;;;;;21.13;13.70;;;1.50;99.90;;;;;;4904470;29;20139;-81
2023/01/22 11:40:38;;;;;;;23.33;14.98;;;1.50;99.90;;;;;;4922899;29;20075;-82
2023/01/22 11:43:32;;;;;;;22.08;14.50;;;1.50;99.90;;;;;;4924972;29;20127;-82
2023/01/22 11:46:22;;;;;;;21.15;13.88;;;1.50;99.90;;;;;;4917289;29;20060;-81
2023/01/22 11:48:58;;;;;;;22.25;14.65;;;1.60;99.90;;;;;;4903754;29;20045;-81
2023/01/22 11:51:51;;;;;;;19.40;13.57;;;1.60;99.90;;;;;;4920027;29;20158;-81
2023/01/22 11:54:36;;;;;;;20.05;13.00;;;1.70;99.90;;;;;;4924415;29;20054;-79
2023/01/22 11:57:29;;;;;;;20.73;13.88;;;1.80;99.90;;;;;;4927776;29;20055;-82
2023/01/22 12:00:02;;;;;;;23.35;14.38;;;1.70;99.90;;;;;;4923010;29;20139;-82
2023/01/22 12:02:28;;;;;;;23.92;15.25;;;1.70;99.90;;;;;;4912686;29;20084;-81
2023/01/22 12:05:12;;;;;;;23.10;14.82;;;1.70;99.90;;;;;;4920662;29;20566;-81
2023/01/22 12:07:38;;;;;;;21.30;14.90;;;1.70;99.90;;;;;;4901195;29;20052;-82
2023/01/22 12:10:31;;;;;;;23.55;15.52;;;1.70;99.90;;;;;;4904015;29;20108;-82
2023/01/22 12:13:03;;;;;;;21.30;14.82;;;1.80;99.90;;;;;;4906928;29;20055;-82
2023/01/22 12:15:43;;;;;;;21.90;14.88;;;1.80;99.90;;;;;;4929931;29;20075;-82
2023/01/22 12:18:33;;;;;;;25.02;16.00;;;1.70;99.90;;;;;;4919034;29;20091;-82
2023/01/22 12:21:20;;;;;;;22.63;13.32;;;1.80;99.90;;;;;;4918321;29;20048;-81
2023/01/22 12:24:01;;;;;;;25.63;16.35;;;1.80;99.90;;;;;;4914282;29;20082;-81
2023/01/22 12:26:39;;;;;;;27.38;15.82;;;1.90;99.90;;;;;;4929059;29;20063;-82
2023/01/22 12:29:16;;;;;;;24.50;15.60;;;1.90;99.90;;;;;;4922679;29;20085;-82
2023/01/22 12:31:55;;;;;;;26.83;16.67;;;1.90;99.90;;;;;;4902715;29;20052;-82
2023/01/22 12:34:28;;;;;;;20.02;13.55;;;2.00;99.90;;;;;;4913804;29;20615;-83
2023/01/22 12:36:55;;;;;;;19.77;12.80;;;2.00;99.90;;;;;;4924335;29;20114;-82
2023/01/22 12:39:40;;;;;;;29.38;18.08;;;2.00;99.90;;;;;;4910543;29;20075;-81
2023/01/22 12:42:40;;;;;;;29.63;19.73;;;2.10;99.90;;;;;;4929755;29;20155;-83
2023/01/22 12:45:38;;;;;;;19.80;13.52;;;2.10;99.90;;;;;;4889147;29;20429;-83
2023/01/22 12:48:27;;;;;;;23.33;14.57;;;2.10;99.90;;;;;;4921088;29;20080;-82
2023/01/22 12:50:56;;;;;;;21.33;14.23;;;2.10;99.90;;;;;;4918923;29;20095;-81
2023/01/22 12:53:29;;;;;;;25.45;17.15;;;2.00;99.90;;;;;;4923568;29;20143;-82
2023/01/22 12:56:10;;;;;;;18.80;12.80;;;2.00;99.90;;;;;;4926031;29;20048;-82
2023/01/22 12:58:39;;;;;;;18.67;12.63;;;1.90;99.90;;;;;;4920824;29;20139;-82